sensor_id;sensor_type;location;lat;lon;timestamp;pressure;altitude;pressure_sealevel;temperature;humidity
10115;BME280;5097;43.260;27.812;2023-03-31T00:00:59;100335.00;;;2.08;57.38
10115;BME280;5097;43.260;27.812;2023-03-31T00:03:43;100272.00;;;1.79;57.84
10115;BME280;5097;43.260;27.812;2023-03-31T00:06:27;100316.59;;;2.17;57.36
10115;BME280;5097;43.260;27.812;2023-03-31T00:09:13;100311.50;;;2.11;56.60
10115;BME280;5097;43.260;27.812;2023-03-31T00:11:58;100308.09;;;2.06;57.21
10115;BME280;5097;43.260;27.812;2023-03-31T00:14:42;100282.47;;;1.76;58.27
10115;BME280;5097;43.260;27.812;2023-03-31T00:17:26;100307.09;;;2.13;57.53
10115;BME280;5097;43.260;27.812;2023-03-31T00:20:11;100303.59;;;2.15;56.78
10115;BME280;5097;43.260;27.812;2023-03-31T00:22:56;100289.66;;;2.18;57.50
10115;BME280;5097;43.260;27.812;2023-03-31T00:25:40;100292.59;;;1.96;58.32
10115;BME280;5097;43.260;27.812;2023-03-31T00:28:25;100291.47;;;2.13;57.10
10115;BME280;5097;43.260;27.812;2023-03-31T00:31:09;100290.56;;;2.15;56.57
10115;BME280;5097;43.260;27.812;2023-03-31T00:33:55;100274.91;;;2.18;56.89
10115;BME280;5097;43.260;27.812;2023-03-31T00:36:39;100249.97;;;2.00;56.45
10115;BME280;5097;43.260;27.812;2023-03-31T00:39:28;100277.19;;;2.35;55.99
10115;BME280;5097;43.260;27.812;2023-03-31T00:42:16;100275.59;;;2.28;56.90
10115;BME280;5097;43.260;27.812;2023-03-31T00:45:25;100275.69;;;2.22;56.92
10115;BME280;5097;43.260;27.812;2023-03-31T00:48:13;100268.72;;;2.24;56.93
10115;BME280;5097;43.260;27.812;2023-03-31T00:51:01;100266.91;;;2.29;56.55
10115;BME280;5097;43.260;27.812;2023-03-31T00:53:50;100259.19;;;2.22;56.59
10115;BME280;5097;43.260;27.812;2023-03-31T00:56:38;100247.78;;;2.29;56.26
10115;BME280;5097;43.260;27.812;2023-03-31T00:59:26;100245.25;;;2.24;56.69
10115;BME280;5097;43.260;27.812;2023-03-31T01:02:12;100249.84;;;2.10;57.30
10115;BME280;5097;43.260;27.812;2023-03-31T01:04:58;100237.59;;;2.15;56.51
10115;BME280;5097;43.260;27.812;2023-03-31T01:07:45;100238.25;;;2.26;56.85
10115;BME280;5097;43.260;27.812;2023-03-31T01:10:34;100232.44;;;2.12;57.76
10115;BME280;5097;43.260;27.812;2023-03-31T01:13:24;100229.13;;;2.00;57.53
10115;BME280;5097;43.260;27.812;2023-03-31T01:16:09;100232.44;;;2.12;57.96
10115;BME280;5097;43.260;27.812;2023-03-31T01:18:54;100222.78;;;2.17;56.85
10115;BME280;5097;43.260;27.812;2023-03-31T01:28:31;100216.91;;;2.06;58.05
10115;BME280;5097;43.260;27.812;2023-03-31T01:41:26;100132.31;;;1.74;57.36
10115;BME280;5097;43.260;27.812;2023-03-31T01:44:19;100151.84;;;2.01;56.23
10115;BME280;5097;43.260;27.812;2023-03-31T01:47:09;100189.25;;;2.47;56.32
10115;BME280;5097;43.260;27.812;2023-03-31T01:49:57;100189.72;;;2.19;57.30
10115;BME280;5097;43.260;27.812;2023-03-31T01:52:46;100173.25;;;2.17;58.12
10115;BME280;5097;43.260;27.812;2023-03-31T01:55:35;100174.06;;;2.21;57.83
10115;BME280;5097;43.260;27.812;2023-03-31T01:58:24;100175.13;;;2.09;57.96
10115;BME280;5097;43.260;27.812;2023-03-31T02:01:14;100146.50;;;2.07;56.76
10115;BME280;5097;43.260;27.812;2023-03-31T02:04:06;100161.66;;;2.35;57.46
10115;BME280;5097;43.260;27.812;2023-03-31T02:06:56;100156.53;;;2.29;56.83
10115;BME280;5097;43.260;27.812;2023-03-31T02:09:44;100140.75;;;2.37;57.09
10115;BME280;5097;43.260;27.812;2023-03-31T02:12:32;100139.63;;;2.50;55.82
10115;BME280;5097;43.260;27.812;2023-03-31T02:15:21;100143.06;;;2.52;56.80
10115;BME280;5097;43.260;27.812;2023-03-31T02:18:08;100141.34;;;2.51;56.13
10115;BME280;5097;43.260;27.812;2023-03-31T02:20:55;100136.00;;;2.57;55.29
10115;BME280;5097;43.260;27.812;2023-03-31T02:23:41;100127.63;;;2.83;54.28
10115;BME280;5097;43.260;27.812;2023-03-31T02:26:30;100109.28;;;2.88;54.06
10115;BME280;5097;43.260;27.812;2023-03-31T02:29:14;100097.72;;;2.59;55.23
10115;BME280;5097;43.260;27.812;2023-03-31T02:32:03;100123.16;;;2.48;56.37
10115;BME280;5097;43.260;27.812;2023-03-31T02:34:52;100115.13;;;2.57;56.74
10115;BME280;5097;43.260;27.812;2023-03-31T02:37:37;100113.31;;;2.61;56.44
10115;BME280;5097;43.260;27.812;2023-03-31T02:40:22;100113.69;;;2.42;56.86
10115;BME280;5097;43.260;27.812;2023-03-31T02:43:09;100112.91;;;2.39;57.72
10115;BME280;5097;43.260;27.812;2023-03-31T02:45:53;100118.94;;;2.41;57.48
10115;BME280;5097;43.260;27.812;2023-03-31T02:48:41;100117.03;;;2.49;57.87
10115;BME280;5097;43.260;27.812;2023-03-31T02:51:43;100113.19;;;2.23;58.17
10115;BME280;5097;43.260;27.812;2023-03-31T02:54:42;100093.22;;;2.22;57.24
10115;BME280;5097;43.260;27.812;2023-03-31T02:57:43;100072.38;;;2.22;57.70
10115;BME280;5097;43.260;27.812;2023-03-31T03:00:44;100111.72;;;2.55;56.91
10115;BME280;5097;43.260;27.812;2023-03-31T03:03:43;100099.44;;;2.60;58.18
10115;BME280;5097;43.260;27.812;2023-03-31T03:06:40;100098.41;;;2.25;58.79
10115;BME280;5097;43.260;27.812;2023-03-31T03:09:41;100101.06;;;2.22;58.76
10115;BME280;5097;43.260;27.812;2023-03-31T03:12:32;100093.81;;;2.37;57.45
10115;BME280;5097;43.260;27.812;2023-03-31T03:15:23;100093.75;;;2.41;57.48
10115;BME280;5097;43.260;27.812;2023-03-31T03:18:08;100080.53;;;2.49;56.76
10115;BME280;5097;43.260;27.812;2023-03-31T03:20:53;100078.31;;;2.73;57.06
10115;BME280;5097;43.260;27.812;2023-03-31T03:23:37;100085.41;;;2.22;58.43
10115;BME280;5097;43.260;27.812;2023-03-31T03:26:21;100078.38;;;2.27;57.85
10115;BME280;5097;43.260;27.812;2023-03-31T03:29:09;100072.84;;;2.43;57.83
10115;BME280;5097;43.260;27.812;2023-03-31T03:31:54;100055.22;;;2.54;57.01
10115;BME280;5097;43.260;27.812;2023-03-31T03:34:38;100066.94;;;2.75;56.29
10115;BME280;5097;43.260;27.812;2023-03-31T03:37:23;100064.66;;;2.60;57.45
10115;BME280;5097;43.260;27.812;2023-03-31T03:40:08;100075.56;;;2.79;56.78
10115;BME280;5097;43.260;27.812;2023-03-31T03:42:53;100076.72;;;2.65;56.59
10115;BME280;5097;43.260;27.812;2023-03-31T03:45:37;100067.56;;;2.87;56.17
10115;BME280;5097;43.260;27.812;2023-03-31T03:48:21;100069.88;;;2.61;57.15
10115;BME280;5097;43.260;27.812;2023-03-31T03:51:05;100070.44;;;2.74;57.07
10115;BME280;5097;43.260;27.812;2023-03-31T03:53:50;100063.53;;;2.72;57.75
10115;BME280;5097;43.260;27.812;2023-03-31T03:56:34;100067.88;;;2.73;57.43
10115;BME280;5097;43.260;27.812;2023-03-31T03:59:18;100052.75;;;2.89;57.41
10115;BME280;5097;43.260;27.812;2023-03-31T04:02:02;100031.22;;;2.79;57.81
10115;BME280;5097;43.260;27.812;2023-03-31T04:04:46;100056.19;;;3.28;57.60
10115;BME280;5097;43.260;27.812;2023-03-31T04:07:30;100056.22;;;3.25;57.63
10115;BME280;5097;43.260;27.812;2023-03-31T04:10:15;100030.22;;;3.22;57.61
10115;BME280;5097;43.260;27.812;2023-03-31T04:12:59;99965.09;;;2.80;57.88
10115;BME280;5097;43.260;27.812;2023-03-31T04:15:44;100043.97;;;3.29;58.17
10115;BME280;5097;43.260;27.812;2023-03-31T04:18:28;100056.66;;;3.44;57.92
10115;BME280;5097;43.260;27.812;2023-03-31T04:21:12;100017.69;;;3.37;58.32
10115;BME280;5097;43.260;27.812;2023-03-31T04:24:05;100041.44;;;3.60;58.45
10115;BME280;5097;43.260;27.812;2023-03-31T04:26:50;100018.41;;;3.42;58.45
10115;BME280;5097;43.260;27.812;2023-03-31T04:29:34;100011.97;;;3.88;58.22
10115;BME280;5097;43.260;27.812;2023-03-31T04:32:18;100036.44;;;4.17;58.33
10115;BME280;5097;43.260;27.812;2023-03-31T04:35:03;99991.47;;;4.04;56.99
10115;BME280;5097;43.260;27.812;2023-03-31T04:37:48;100022.19;;;4.27;56.85
10115;BME280;5097;43.260;27.812;2023-03-31T04:40:32;100013.63;;;4.52;57.16
10115;BME280;5097;43.260;27.812;2023-03-31T04:43:19;100010.47;;;4.70;55.64
10115;BME280;5097;43.260;27.812;2023-03-31T04:46:03;100035.97;;;4.92;57.14
10115;BME280;5097;43.260;27.812;2023-03-31T04:48:47;99996.59;;;4.95;57.45
10115;BME280;5097;43.260;27.812;2023-03-31T04:51:31;100021.19;;;5.18;56.59
10115;BME280;5097;43.260;27.812;2023-03-31T04:54:15;100009.69;;;5.49;55.97
10115;BME280;5097;43.260;27.812;2023-03-31T04:56:59;100019.19;;;6.03;56.31
10115;BME280;5097;43.260;27.812;2023-03-31T04:59:44;100021.00;;;6.25;54.08
10115;BME280;5097;43.260;27.812;2023-03-31T05:02:28;100011.06;;;6.35;54.03
10115;BME280;5097;43.260;27.812;2023-03-31T05:05:12;99999.00;;;6.29;55.06
10115;BME280;5097;43.260;27.812;2023-03-31T05:07:56;99991.06;;;6.31;56.68
10115;BME280;5097;43.260;27.812;2023-03-31T05:10:40;99891.69;;;5.76;55.05
10115;BME280;5097;43.260;27.812;2023-03-31T05:13:24;99995.59;;;6.95;54.28
10115;BME280;5097;43.260;27.812;2023-03-31T05:16:11;99955.81;;;7.04;53.77
10115;BME280;5097;43.260;27.812;2023-03-31T05:18:56;99958.63;;;7.22;52.64
10115;BME280;5097;43.260;27.812;2023-03-31T05:21:40;99990.59;;;7.94;52.53
10115;BME280;5097;43.260;27.812;2023-03-31T05:24:24;99973.53;;;8.02;52.03
10115;BME280;5097;43.260;27.812;2023-03-31T05:27:09;99972.34;;;8.10;52.23
10115;BME280;5097;43.260;27.812;2023-03-31T05:29:53;99964.16;;;8.16;51.93
10115;BME280;5097;43.260;27.812;2023-03-31T05:32:38;99957.13;;;7.97;53.30
10115;BME280;5097;43.260;27.812;2023-03-31T05:35:22;99967.63;;;8.35;53.45
10115;BME280;5097;43.260;27.812;2023-03-31T05:38:06;99966.25;;;9.03;50.68
10115;BME280;5097;43.260;27.812;2023-03-31T05:40:50;99970.06;;;9.50;48.24
10115;BME280;5097;43.260;27.812;2023-03-31T05:43:34;99961.91;;;9.37;46.08
10115;BME280;5097;43.260;27.812;2023-03-31T05:46:18;99968.81;;;9.22;46.91
10115;BME280;5097;43.260;27.812;2023-03-31T05:49:03;99974.34;;;9.68;46.28
10115;BME280;5097;43.260;27.812;2023-03-31T05:51:47;99962.28;;;9.47;46.19
10115;BME280;5097;43.260;27.812;2023-03-31T05:54:32;99954.53;;;9.44;44.22
10115;BME280;5097;43.260;27.812;2023-03-31T05:57:16;99959.50;;;9.67;44.95
10115;BME280;5097;43.260;27.812;2023-03-31T06:00:00;99965.00;;;9.45;42.95
10115;BME280;5097;43.260;27.812;2023-03-31T06:02:45;99972.25;;;9.93;42.97
10115;BME280;5097;43.260;27.812;2023-03-31T06:05:31;99970.59;;;10.23;43.23
10115;BME280;5097;43.260;27.812;2023-03-31T06:08:14;99962.84;;;9.87;42.82
10115;BME280;5097;43.260;27.812;2023-03-31T06:10:58;99974.41;;;10.18;43.04
10115;BME280;5097;43.260;27.812;2023-03-31T06:13:42;99959.34;;;10.20;43.00
10115;BME280;5097;43.260;27.812;2023-03-31T06:16:26;99964.63;;;10.20;43.67
10115;BME280;5097;43.260;27.812;2023-03-31T06:19:10;99959.53;;;10.17;43.92
10115;BME280;5097;43.260;27.812;2023-03-31T06:21:55;99958.38;;;10.05;44.45
10115;BME280;5097;43.260;27.812;2023-03-31T06:24:39;99959.22;;;10.05;45.15
10115;BME280;5097;43.260;27.812;2023-03-31T06:27:23;99952.34;;;9.52;43.42
10115;BME280;5097;43.260;27.812;2023-03-31T06:30:08;99958.47;;;9.70;44.72
10115;BME280;5097;43.260;27.812;2023-03-31T06:32:52;99947.91;;;10.03;43.92
10115;BME280;5097;43.260;27.812;2023-03-31T06:35:37;99930.78;;;9.61;44.92
10115;BME280;5097;43.260;27.812;2023-03-31T06:38:22;99951.75;;;10.14;45.05
10115;BME280;5097;43.260;27.812;2023-03-31T06:41:07;99952.72;;;9.95;45.50
10115;BME280;5097;43.260;27.812;2023-03-31T06:43:51;99952.06;;;10.41;44.04
10115;BME280;5097;43.260;27.812;2023-03-31T06:46:35;99950.00;;;10.78;43.52
10115;BME280;5097;43.260;27.812;2023-03-31T06:49:19;99951.34;;;11.01;43.48
10115;BME280;5097;43.260;27.812;2023-03-31T06:52:04;99954.63;;;10.75;43.29
10115;BME280;5097;43.260;27.812;2023-03-31T06:54:49;99949.34;;;10.75;43.20
10115;BME280;5097;43.260;27.812;2023-03-31T06:57:32;99957.97;;;10.62;43.59
10115;BME280;5097;43.260;27.812;2023-03-31T07:00:17;99958.75;;;10.15;44.06
10115;BME280;5097;43.260;27.812;2023-03-31T07:03:04;99960.94;;;10.56;43.92
10115;BME280;5097;43.260;27.812;2023-03-31T07:05:48;99963.66;;;10.38;44.84
10115;BME280;5097;43.260;27.812;2023-03-31T07:08:32;99954.63;;;10.59;43.59
10115;BME280;5097;43.260;27.812;2023-03-31T07:11:18;99954.06;;;11.00;43.74
10115;BME280;5097;43.260;27.812;2023-03-31T07:14:02;99952.16;;;11.02;43.60
10115;BME280;5097;43.260;27.812;2023-03-31T07:16:46;99957.16;;;10.92;43.99
10115;BME280;5097;43.260;27.812;2023-03-31T07:19:32;99945.22;;;10.85;44.98
10115;BME280;5097;43.260;27.812;2023-03-31T07:22:19;99941.59;;;11.02;44.44
10115;BME280;5097;43.260;27.812;2023-03-31T07:25:03;99937.56;;;10.64;45.35
10115;BME280;5097;43.260;27.812;2023-03-31T07:27:48;99933.69;;;10.55;45.04
10115;BME280;5097;43.260;27.812;2023-03-31T07:30:32;99883.38;;;10.25;45.19
10115;BME280;5097;43.260;27.812;2023-03-31T07:33:16;99939.47;;;10.62;45.57
10115;BME280;5097;43.260;27.812;2023-03-31T07:36:03;99907.78;;;10.93;44.67
10115;BME280;5097;43.260;27.812;2023-03-31T07:38:54;99932.97;;;10.84;46.00
10115;BME280;5097;43.260;27.812;2023-03-31T07:41:38;99939.44;;;11.09;44.84
10115;BME280;5097;43.260;27.812;2023-03-31T07:44:24;99935.00;;;11.39;44.56
10115;BME280;5097;43.260;27.812;2023-03-31T07:47:08;99936.19;;;11.19;45.25
10115;BME280;5097;43.260;27.812;2023-03-31T07:49:52;99929.91;;;10.76;45.59
10115;BME280;5097;43.260;27.812;2023-03-31T07:52:36;99930.94;;;11.03;45.44
10115;BME280;5097;43.260;27.812;2023-03-31T07:55:20;99899.53;;;11.13;45.55
10115;BME280;5097;43.260;27.812;2023-03-31T07:58:05;99931.59;;;11.52;45.22
10115;BME280;5097;43.260;27.812;2023-03-31T08:00:50;99923.13;;;11.61;45.30
10115;BME280;5097;43.260;27.812;2023-03-31T08:03:34;99919.34;;;11.65;46.14
10115;BME280;5097;43.260;27.812;2023-03-31T08:06:19;99932.53;;;11.36;47.44
10115;BME280;5097;43.260;27.812;2023-03-31T08:09:04;99930.94;;;11.03;48.96
10115;BME280;5097;43.260;27.812;2023-03-31T08:11:48;99927.25;;;11.36;48.85
10115;BME280;5097;43.260;27.812;2023-03-31T08:14:32;99928.34;;;11.63;48.79
10115;BME280;5097;43.260;27.812;2023-03-31T08:17:24;99918.97;;;11.86;48.74
10115;BME280;5097;43.260;27.812;2023-03-31T08:20:08;99924.94;;;12.04;48.51
10115;BME280;5097;43.260;27.812;2023-03-31T08:22:52;99919.34;;;11.51;51.09
10115;BME280;5097;43.260;27.812;2023-03-31T08:25:36;99895.09;;;10.83;53.98
10115;BME280;5097;43.260;27.812;2023-03-31T08:28:20;99920.88;;;10.80;54.04
10115;BME280;5097;43.260;27.812;2023-03-31T08:31:05;99925.78;;;10.70;54.84
10115;BME280;5097;43.260;27.812;2023-03-31T08:33:51;99917.28;;;10.33;56.97
10115;BME280;5097;43.260;27.812;2023-03-31T08:36:36;99916.22;;;10.53;56.32
10115;BME280;5097;43.260;27.812;2023-03-31T08:39:20;99913.47;;;10.38;56.83
10115;BME280;5097;43.260;27.812;2023-03-31T08:42:06;99911.34;;;10.45;58.25
10115;BME280;5097;43.260;27.812;2023-03-31T08:44:58;99905.34;;;10.26;59.09
10115;BME280;5097;43.260;27.812;2023-03-31T08:47:46;99890.72;;;10.52;58.37
10115;BME280;5097;43.260;27.812;2023-03-31T08:50:37;99895.44;;;10.93;58.64
10115;BME280;5097;43.260;27.812;2023-03-31T08:53:28;99858.56;;;10.76;59.17
10115;BME280;5097;43.260;27.812;2023-03-31T08:56:14;99895.31;;;10.64;60.72
10115;BME280;5097;43.260;27.812;2023-03-31T08:58:59;99895.59;;;10.44;63.33
10115;BME280;5097;43.260;27.812;2023-03-31T09:01:47;99892.50;;;10.19;64.73
10115;BME280;5097;43.260;27.812;2023-03-31T09:04:55;99870.22;;;10.71;63.27
10115;BME280;5097;43.260;27.812;2023-03-31T09:07:50;99876.53;;;11.30;61.98
10115;BME280;5097;43.260;27.812;2023-03-31T09:10:42;99877.09;;;11.78;61.30
10115;BME280;5097;43.260;27.812;2023-03-31T09:13:44;99857.38;;;11.69;61.79
10115;BME280;5097;43.260;27.812;2023-03-31T09:16:34;99867.34;;;12.22;59.50
10115;BME280;5097;43.260;27.812;2023-03-31T09:19:32;99869.84;;;11.96;61.41
10115;BME280;5097;43.260;27.812;2023-03-31T09:22:22;99862.41;;;12.30;64.32
10115;BME280;5097;43.260;27.812;2023-03-31T09:25:11;99859.44;;;11.64;66.49
10115;BME280;5097;43.260;27.812;2023-03-31T09:27:58;99863.75;;;11.22;66.20
10115;BME280;5097;43.260;27.812;2023-03-31T09:30:43;99837.25;;;11.38;65.65
10115;BME280;5097;43.260;27.812;2023-03-31T09:33:31;99859.81;;;11.29;66.64
10115;BME280;5097;43.260;27.812;2023-03-31T09:36:16;99824.00;;;11.38;65.87
10115;BME280;5097;43.260;27.812;2023-03-31T09:39:00;99842.59;;;11.22;67.68
10115;BME280;5097;43.260;27.812;2023-03-31T09:41:48;99844.97;;;11.41;68.95
10115;BME280;5097;43.260;27.812;2023-03-31T09:44:37;99826.72;;;11.65;67.85
10115;BME280;5097;43.260;27.812;2023-03-31T09:47:29;99838.75;;;10.04;73.18
10115;BME280;5097;43.260;27.812;2023-03-31T09:50:15;99841.00;;;11.19;70.61
10115;BME280;5097;43.260;27.812;2023-03-31T09:53:00;99831.19;;;11.50;69.48
10115;BME280;5097;43.260;27.812;2023-03-31T09:55:50;99831.84;;;11.25;70.91
10115;BME280;5097;43.260;27.812;2023-03-31T09:58:41;99790.22;;;10.69;71.92
10115;BME280;5097;43.260;27.812;2023-03-31T10:01:25;99826.47;;;10.82;74.08
10115;BME280;5097;43.260;27.812;2023-03-31T10:04:18;99830.06;;;10.81;73.88
10115;BME280;5097;43.260;27.812;2023-03-31T10:07:04;99818.94;;;10.76;73.17
10115;BME280;5097;43.260;27.812;2023-03-31T10:09:50;99830.78;;;10.99;72.46
10115;BME280;5097;43.260;27.812;2023-03-31T10:12:34;99826.63;;;10.64;73.55
10115;BME280;5097;43.260;27.812;2023-03-31T10:15:25;99778.91;;;10.21;74.05
10115;BME280;5097;43.260;27.812;2023-03-31T10:18:12;99812.81;;;10.59;73.55
10115;BME280;5097;43.260;27.812;2023-03-31T10:20:57;99811.53;;;10.36;74.46
10115;BME280;5097;43.260;27.812;2023-03-31T10:23:45;99792.81;;;10.85;73.25
10115;BME280;5097;43.260;27.812;2023-03-31T10:26:29;99801.53;;;11.31;71.71
10115;BME280;5097;43.260;27.812;2023-03-31T10:29:18;99788.28;;;11.60;70.71
10115;BME280;5097;43.260;27.812;2023-03-31T10:32:16;99782.16;;;11.45;70.07
10115;BME280;5097;43.260;27.812;2023-03-31T10:35:06;99771.78;;;11.56;70.31
10115;BME280;5097;43.260;27.812;2023-03-31T10:37:54;99768.13;;;11.86;70.33
10115;BME280;5097;43.260;27.812;2023-03-31T10:40:41;99758.59;;;12.51;68.07
10115;BME280;5097;43.260;27.812;2023-03-31T10:43:36;99765.75;;;13.40;65.33
10115;BME280;5097;43.260;27.812;2023-03-31T10:46:39;99728.53;;;13.29;65.88
10115;BME280;5097;43.260;27.812;2023-03-31T10:49:26;99741.22;;;13.50;65.09
10115;BME280;5097;43.260;27.812;2023-03-31T10:52:19;99745.69;;;12.19;68.92
10115;BME280;5097;43.260;27.812;2023-03-31T10:55:10;99721.66;;;12.62;70.02
10115;BME280;5097;43.260;27.812;2023-03-31T10:57:57;99731.06;;;14.05;65.18
10115;BME280;5097;43.260;27.812;2023-03-31T11:00:54;99726.78;;;14.62;62.68
10115;BME280;5097;43.260;27.812;2023-03-31T11:04:09;99721.19;;;14.07;64.48
10115;BME280;5097;43.260;27.812;2023-03-31T11:07:07;99714.75;;;14.34;62.48
10115;BME280;5097;43.260;27.812;2023-03-31T11:10:06;99712.13;;;14.10;61.92
10115;BME280;5097;43.260;27.812;2023-03-31T11:12:57;99711.63;;;14.64;61.58
10115;BME280;5097;43.260;27.812;2023-03-31T11:15:51;99705.53;;;13.67;60.94
10115;BME280;5097;43.260;27.812;2023-03-31T11:18:46;99706.84;;;13.85;62.88
10115;BME280;5097;43.260;27.812;2023-03-31T11:21:44;99678.94;;;14.62;59.89
10115;BME280;5097;43.260;27.812;2023-03-31T11:24:52;99698.06;;;14.79;60.03
10115;BME280;5097;43.260;27.812;2023-03-31T11:27:56;99688.25;;;14.21;61.33
10115;BME280;5097;43.260;27.812;2023-03-31T11:30:50;99696.66;;;13.42;63.16
10115;BME280;5097;43.260;27.812;2023-03-31T11:33:49;99701.13;;;13.41;64.29
10115;BME280;5097;43.260;27.812;2023-03-31T11:36:57;99682.16;;;12.19;69.65
10115;BME280;5097;43.260;27.812;2023-03-31T11:39:56;99693.84;;;12.55;66.30
10115;BME280;5097;43.260;27.812;2023-03-31T11:42:52;99691.63;;;13.00;65.09
10115;BME280;5097;43.260;27.812;2023-03-31T11:45:40;99663.38;;;13.25;63.00
10115;BME280;5097;43.260;27.812;2023-03-31T11:48:35;99689.63;;;14.02;62.66
10115;BME280;5097;43.260;27.812;2023-03-31T11:51:24;99658.47;;;13.93;62.78
10115;BME280;5097;43.260;27.812;2023-03-31T11:54:16;99674.53;;;14.27;59.09
10115;BME280;5097;43.260;27.812;2023-03-31T11:57:11;99662.19;;;12.66;64.12
10115;BME280;5097;43.260;27.812;2023-03-31T11:59:59;99672.72;;;13.92;62.31
10115;BME280;5097;43.260;27.812;2023-03-31T12:02:56;99632.78;;;13.69;62.38
10115;BME280;5097;43.260;27.812;2023-03-31T12:05:44;99650.84;;;14.82;60.94
10115;BME280;5097;43.260;27.812;2023-03-31T12:08:34;99637.75;;;15.13;58.71
10115;BME280;5097;43.260;27.812;2023-03-31T12:11:23;99642.97;;;14.22;60.80
10115;BME280;5097;43.260;27.812;2023-03-31T12:14:31;99632.09;;;14.84;57.17
10115;BME280;5097;43.260;27.812;2023-03-31T12:17:17;99638.09;;;15.20;57.21
10115;BME280;5097;43.260;27.812;2023-03-31T12:20:04;99639.78;;;15.32;58.72
10115;BME280;5097;43.260;27.812;2023-03-31T12:22:53;99636.22;;;13.83;62.63
10115;BME280;5097;43.260;27.812;2023-03-31T12:25:45;99631.63;;;14.67;61.31
10115;BME280;5097;43.260;27.812;2023-03-31T12:28:30;99629.63;;;14.47;60.76
10115;BME280;5097;43.260;27.812;2023-03-31T12:31:18;99630.00;;;14.53;60.18
10115;BME280;5097;43.260;27.812;2023-03-31T12:34:07;99626.91;;;14.13;62.92
10115;BME280;5097;43.260;27.812;2023-03-31T12:37:02;99613.41;;;14.27;62.11
10115;BME280;5097;43.260;27.812;2023-03-31T12:39:54;99616.47;;;13.98;61.82
10115;BME280;5097;43.260;27.812;2023-03-31T12:42:53;99564.88;;;13.43;62.48
10115;BME280;5097;43.260;27.812;2023-03-31T12:45:42;99606.31;;;13.92;64.11
10115;BME280;5097;43.260;27.812;2023-03-31T12:51:51;99612.94;;;15.24;60.45
10115;BME280;5097;43.260;27.812;2023-03-31T12:54:58;99595.06;;;15.91;56.94
10115;BME280;5097;43.260;27.812;2023-03-31T12:57:45;99597.59;;;16.14;56.74
10115;BME280;5097;43.260;27.812;2023-03-31T13:00:28;99593.94;;;16.57;55.04
10115;BME280;5097;43.260;27.812;2023-03-31T13:03:45;99593.09;;;16.35;53.70
10115;BME280;5097;43.260;27.812;2023-03-31T13:06:51;99587.78;;;16.35;56.66
10115;BME280;5097;43.260;27.812;2023-03-31T13:09:44;99592.56;;;16.11;57.08
10115;BME280;5097;43.260;27.812;2023-03-31T13:12:28;99587.59;;;16.58;56.33
10115;BME280;5097;43.260;27.812;2023-03-31T13:15:14;99581.75;;;16.64;55.51
10115;BME280;5097;43.260;27.812;2023-03-31T13:18:00;99542.28;;;16.27;54.79
10115;BME280;5097;43.260;27.812;2023-03-31T13:20:57;99572.16;;;15.67;56.50
10115;BME280;5097;43.260;27.812;2023-03-31T13:23:43;99546.00;;;15.40;58.00
10115;BME280;5097;43.260;27.812;2023-03-31T13:26:40;99541.63;;;15.06;59.23
10115;BME280;5097;43.260;27.812;2023-03-31T13:29:26;99519.59;;;15.16;59.54
10115;BME280;5097;43.260;27.812;2023-03-31T13:32:22;99563.09;;;15.91;58.93
10115;BME280;5097;43.260;27.812;2023-03-31T13:35:13;99518.75;;;15.48;59.39
10115;BME280;5097;43.260;27.812;2023-03-31T13:38:08;99558.81;;;16.21;56.75
10115;BME280;5097;43.260;27.812;2023-03-31T13:41:25;99525.44;;;15.63;58.65
10115;BME280;5097;43.260;27.812;2023-03-31T13:44:31;99551.66;;;16.00;58.21
10115;BME280;5097;43.260;27.812;2023-03-31T13:47:51;99519.53;;;15.92;58.72
10115;BME280;5097;43.260;27.812;2023-03-31T13:50:54;99531.50;;;15.65;59.20
10115;BME280;5097;43.260;27.812;2023-03-31T13:57:26;99535.78;;;15.78;60.55
10115;BME280;5097;43.260;27.812;2023-03-31T14:00:29;99536.66;;;15.99;61.11
10115;BME280;5097;43.260;27.812;2023-03-31T14:03:45;99533.53;;;16.15;58.99
10115;BME280;5097;43.260;27.812;2023-03-31T14:06:37;99522.97;;;15.83;60.67
10115;BME280;5097;43.260;27.812;2023-03-31T14:09:26;99530.25;;;15.69;61.65
10115;BME280;5097;43.260;27.812;2023-03-31T14:12:21;99525.94;;;15.89;60.79
10115;BME280;5097;43.260;27.812;2023-03-31T14:15:16;99517.22;;;15.66;60.00
10115;BME280;5097;43.260;27.812;2023-03-31T14:18:02;99533.47;;;16.05;60.79
10115;BME280;5097;43.260;27.812;2023-03-31T14:23:56;99500.88;;;15.92;60.69
10115;BME280;5097;43.260;27.812;2023-03-31T14:26:49;99525.00;;;15.58;61.83
10115;BME280;5097;43.260;27.812;2023-03-31T14:29:43;99523.59;;;15.54;61.83
10115;BME280;5097;43.260;27.812;2023-03-31T14:32:36;99523.56;;;16.07;61.24
10115;BME280;5097;43.260;27.812;2023-03-31T14:35:27;99515.94;;;15.82;61.17
10115;BME280;5097;43.260;27.812;2023-03-31T14:38:16;99519.81;;;15.78;60.96
10115;BME280;5097;43.260;27.812;2023-03-31T14:41:01;99520.53;;;15.58;61.62
10115;BME280;5097;43.260;27.812;2023-03-31T14:43:48;99519.16;;;15.64;61.47
10115;BME280;5097;43.260;27.812;2023-03-31T14:46:37;99517.25;;;15.55;60.74
10115;BME280;5097;43.260;27.812;2023-03-31T14:49:27;99489.59;;;15.25;61.53
10115;BME280;5097;43.260;27.812;2023-03-31T14:52:14;99512.50;;;15.37;61.72
10115;BME280;5097;43.260;27.812;2023-03-31T14:54:59;99501.97;;;15.47;60.74
10115;BME280;5097;43.260;27.812;2023-03-31T14:57:45;99517.34;;;15.32;61.31
10115;BME280;5097;43.260;27.812;2023-03-31T15:00:31;99508.25;;;15.14;61.28
10115;BME280;5097;43.260;27.812;2023-03-31T15:03:17;99509.63;;;14.85;60.95
10115;BME280;5097;43.260;27.812;2023-03-31T15:06:02;99504.75;;;15.13;60.41
10115;BME280;5097;43.260;27.812;2023-03-31T15:08:47;99505.81;;;15.43;59.91
10115;BME280;5097;43.260;27.812;2023-03-31T15:11:31;99508.13;;;15.48;60.90
10115;BME280;5097;43.260;27.812;2023-03-31T15:14:15;99505.72;;;15.66;60.47
10115;BME280;5097;43.260;27.812;2023-03-31T15:16:59;99507.03;;;15.71;60.16
10115;BME280;5097;43.260;27.812;2023-03-31T15:19:45;99513.25;;;15.61;58.97